sensor_id;sensor_type;location;lat;lon;timestamp;pressure;altitude;pressure_sealevel;temperature;humidity
78584;BME280;67880;46.082;18.234;2023-05-10T00:00:16;99738.81;;;10.72;74.03
78584;BME280;67880;46.082;18.234;2023-05-10T00:00:46;99743.53;;;10.70;74.07
78584;BME280;67880;46.082;18.234;2023-05-10T00:01:17;99738.28;;;10.69;74.39
78584;BME280;67880;46.082;18.234;2023-05-10T00:01:48;99740.13;;;10.68;74.46
78584;BME280;67880;46.082;18.234;2023-05-10T00:02:18;99742.13;;;10.66;74.26
78584;BME280;67880;46.082;18.234;2023-05-10T00:02:49;99736.09;;;10.64;74.73
78584;BME280;67880;46.082;18.234;2023-05-10T00:03:35;99733.41;;;10.64;74.56
78584;BME280;67880;46.082;18.234;2023-05-10T00:04:05;99737.78;;;10.65;74.64
78584;BME280;67880;46.082;18.234;2023-05-10T00:04:36;99740.63;;;10.64;74.57
78584;BME280;67880;46.082;18.234;2023-05-10T00:05:08;99738.78;;;10.64;74.68
78584;BME280;67880;46.082;18.234;2023-05-10T00:05:39;99736.09;;;10.64;74.72
78584;BME280;67880;46.082;18.234;2023-05-10T00:06:09;99741.13;;;10.67;74.68
78584;BME280;67880;46.082;18.234;2023-05-10T00:06:40;99735.09;;;10.65;74.58
78584;BME280;67880;46.082;18.234;2023-05-10T00:07:11;99736.25;;;10.63;74.40
78584;BME280;67880;46.082;18.234;2023-05-10T00:07:41;99738.06;;;10.62;74.41
78584;BME280;67880;46.082;18.234;2023-05-10T00:08:14;99735.72;;;10.59;74.47
78584;BME280;67880;46.082;18.234;2023-05-10T00:08:45;99739.91;;;10.62;74.67
78584;BME280;67880;46.082;18.234;2023-05-10T00:09:16;99737.41;;;10.60;74.56
78584;BME280;67880;46.082;18.234;2023-05-10T00:09:47;99739.09;;;10.61;74.04
78584;BME280;67880;46.082;18.234;2023-05-10T00:10:17;99737.03;;;10.55;74.58
78584;BME280;67880;46.082;18.234;2023-05-10T00:10:48;99734.72;;;10.60;74.56
78584;BME280;67880;46.082;18.234;2023-05-10T00:11:19;99739.91;;;10.62;74.49
78584;BME280;67880;46.082;18.234;2023-05-10T00:11:50;99733.88;;;10.60;74.46
78584;BME280;67880;46.082;18.234;2023-05-10T00:12:20;99736.03;;;10.56;74.72
78584;BME280;67880;46.082;18.234;2023-05-10T00:12:51;99729.47;;;10.50;74.79
78584;BME280;67880;46.082;18.234;2023-05-10T00:13:22;99727.28;;;10.54;74.66
78584;BME280;67880;46.082;18.234;2023-05-10T00:13:52;99739.56;;;10.56;74.58
78584;BME280;67880;46.082;18.234;2023-05-10T00:14:23;99731.97;;;10.52;74.79
78584;BME280;67880;46.082;18.234;2023-05-10T00:14:53;99730.59;;;10.48;74.95
78584;BME280;67880;46.082;18.234;2023-05-10T00:15:24;99730.31;;;10.51;74.76
78584;BME280;67880;46.082;18.234;2023-05-10T00:15:55;99728.25;;;10.45;75.13
78584;BME280;67880;46.082;18.234;2023-05-10T00:16:25;99730.59;;;10.48;74.99
78584;BME280;67880;46.082;18.234;2023-05-10T00:16:56;99732.28;;;10.49;75.07
78584;BME280;67880;46.082;18.234;2023-05-10T00:17:26;99732.28;;;10.49;75.20
78584;BME280;67880;46.082;18.234;2023-05-10T00:17:57;99727.91;;;10.48;74.95
78584;BME280;67880;46.082;18.234;2023-05-10T00:18:28;99731.31;;;10.50;74.83
78584;BME280;67880;46.082;18.234;2023-05-10T00:18:58;99731.31;;;10.50;75.19
78584;BME280;67880;46.082;18.234;2023-05-10T00:19:40;99733.00;;;10.51;74.74
78584;BME280;67880;46.082;18.234;2023-05-10T00:20:11;99726.63;;;10.52;74.67
78584;BME280;67880;46.082;18.234;2023-05-10T00:20:42;99734.84;;;10.50;74.61
78584;BME280;67880;46.082;18.234;2023-05-10T00:21:13;99733.81;;;10.51;75.08
78584;BME280;67880;46.082;18.234;2023-05-10T00:21:43;99735.69;;;10.51;74.68
78584;BME280;67880;46.082;18.234;2023-05-10T00:22:14;99722.25;;;10.51;74.77
78584;BME280;67880;46.082;18.234;2023-05-10T00:22:45;99729.47;;;10.50;74.52
78584;BME280;67880;46.082;18.234;2023-05-10T00:23:15;99735.13;;;10.47;74.33
78584;BME280;67880;46.082;18.234;2023-05-10T00:23:46;99723.25;;;10.50;74.89
78584;BME280;67880;46.082;18.234;2023-05-10T00:24:17;99726.25;;;10.47;74.83
78584;BME280;67880;46.082;18.234;2023-05-10T00:24:47;99731.59;;;10.47;74.76
78584;BME280;67880;46.082;18.234;2023-05-10T00:25:18;99729.25;;;10.44;74.91
78584;BME280;67880;46.082;18.234;2023-05-10T00:25:49;99728.25;;;10.45;75.05
78584;BME280;67880;46.082;18.234;2023-05-10T00:26:20;99727.41;;;10.44;75.02
78584;BME280;67880;46.082;18.234;2023-05-10T00:26:51;99726.06;;;10.48;74.65
78584;BME280;67880;46.082;18.234;2023-05-10T00:27:22;99728.41;;;10.43;74.90
78584;BME280;67880;46.082;18.234;2023-05-10T00:27:52;99722.66;;;10.38;75.14
78584;BME280;67880;46.082;18.234;2023-05-10T00:28:27;99723.34;;;10.40;75.11
78584;BME280;67880;46.082;18.234;2023-05-10T00:28:57;99722.50;;;10.40;75.26
78584;BME280;67880;46.082;18.234;2023-05-10T00:29:28;99720.50;;;10.42;75.26
78584;BME280;67880;46.082;18.234;2023-05-10T00:29:59;99721.50;;;10.41;75.01
78584;BME280;67880;46.082;18.234;2023-05-10T00:30:30;99724.34;;;10.39;75.16
78584;BME280;67880;46.082;18.234;2023-05-10T00:31:01;99719.13;;;10.38;75.25
78584;BME280;67880;46.082;18.234;2023-05-10T00:31:31;99721.81;;;10.38;75.03
78584;BME280;67880;46.082;18.234;2023-05-10T00:32:02;99720.28;;;10.35;75.42
78584;BME280;67880;46.082;18.234;2023-05-10T00:32:33;99715.91;;;10.34;75.24
78584;BME280;67880;46.082;18.234;2023-05-10T00:33:03;99710.88;;;10.31;75.58
78584;BME280;67880;46.082;18.234;2023-05-10T00:33:34;99716.91;;;10.33;75.49
78584;BME280;67880;46.082;18.234;2023-05-10T00:34:05;99719.91;;;10.30;75.18
78584;BME280;67880;46.082;18.234;2023-05-10T00:34:35;99720.06;;;10.28;75.75
78584;BME280;67880;46.082;18.234;2023-05-10T00:35:07;99711.63;;;10.23;75.52
78584;BME280;67880;46.082;18.234;2023-05-10T00:35:37;99715.84;;;10.26;75.57
78584;BME280;67880;46.082;18.234;2023-05-10T00:36:08;99710.34;;;10.27;75.44
78584;BME280;67880;46.082;18.234;2023-05-10T00:36:54;99715.44;;;10.21;75.83
78584;BME280;67880;46.082;18.234;2023-05-10T00:37:25;99712.22;;;10.17;75.99
78584;BME280;67880;46.082;18.234;2023-05-10T00:37:56;99709.41;;;10.19;76.33
78584;BME280;67880;46.082;18.234;2023-05-10T00:38:26;99715.59;;;10.19;75.59
78584;BME280;67880;46.082;18.234;2023-05-10T00:38:57;99712.22;;;10.17;75.70
78584;BME280;67880;46.082;18.234;2023-05-10T00:39:27;99712.09;;;10.19;75.49
78584;BME280;67880;46.082;18.234;2023-05-10T00:39:59;99710.53;;;10.16;75.88
78584;BME280;67880;46.082;18.234;2023-05-10T00:40:30;99706.00;;;10.17;76.14
78584;BME280;67880;46.082;18.234;2023-05-10T00:41:01;99713.59;;;10.21;75.64
78584;BME280;67880;46.082;18.234;2023-05-10T00:41:31;99703.56;;;10.23;75.69
78584;BME280;67880;46.082;18.234;2023-05-10T00:42:03;99713.47;;;10.23;75.61
78584;BME280;67880;46.082;18.234;2023-05-10T00:42:34;99709.91;;;10.22;75.81
78584;BME280;67880;46.082;18.234;2023-05-10T00:43:05;99706.72;;;10.19;75.79
78584;BME280;67880;46.082;18.234;2023-05-10T00:43:36;99713.22;;;10.16;75.92
78584;BME280;67880;46.082;18.234;2023-05-10T00:44:06;99707.84;;;10.16;75.72
78584;BME280;67880;46.082;18.234;2023-05-10T00:44:37;99706.56;;;10.20;75.85
78584;BME280;67880;46.082;18.234;2023-05-10T00:45:08;99712.22;;;10.17;75.42
78584;BME280;67880;46.082;18.234;2023-05-10T00:45:40;99704.81;;;10.11;76.11
78584;BME280;67880;46.082;18.234;2023-05-10T00:46:12;99704.66;;;10.13;76.06
78584;BME280;67880;46.082;18.234;2023-05-10T00:46:44;99704.16;;;10.17;76.02
78584;BME280;67880;46.082;18.234;2023-05-10T00:47:17;99700.66;;;10.17;75.85
78584;BME280;67880;46.082;18.234;2023-05-10T00:47:48;99705.34;;;10.15;76.09
78584;BME280;67880;46.082;18.234;2023-05-10T00:48:19;99704.03;;;10.19;75.94
78584;BME280;67880;46.082;18.234;2023-05-10T00:48:50;99707.41;;;10.21;75.68
78584;BME280;67880;46.082;18.234;2023-05-10T00:49:21;99698.50;;;10.20;75.65
78584;BME280;67880;46.082;18.234;2023-05-10T00:49:52;99705.03;;;10.18;75.52
78584;BME280;67880;46.082;18.234;2023-05-10T00:50:23;99701.34;;;10.19;75.79
78584;BME280;67880;46.082;18.234;2023-05-10T00:50:53;99707.56;;;10.19;75.87
78584;BME280;67880;46.082;18.234;2023-05-10T00:51:24;99707.00;;;10.16;76.13
78584;BME280;67880;46.082;18.234;2023-05-10T00:51:55;99703.19;;;10.18;75.81
78584;BME280;67880;46.082;18.234;2023-05-10T00:52:27;99708.56;;;10.18;75.77
78584;BME280;67880;46.082;18.234;2023-05-10T00:52:59;99702.34;;;10.18;75.78
78584;BME280;67880;46.082;18.234;2023-05-10T00:53:31;99703.50;;;10.15;75.96
78584;BME280;67880;46.082;18.234;2023-05-10T00:54:02;99704.34;;;10.16;75.95
78584;BME280;67880;46.082;18.234;2023-05-10T00:54:33;99711.53;;;10.15;76.16
78584;BME280;67880;46.082;18.234;2023-05-10T00:55:04;99702.13;;;10.11;75.80
78584;BME280;67880;46.082;18.234;2023-05-10T00:55:37;99705.66;;;10.12;76.02
78584;BME280;67880;46.082;18.234;2023-05-10T00:56:07;99701.97;;;10.13;75.89
78584;BME280;67880;46.082;18.234;2023-05-10T00:56:39;99699.44;;;10.11;76.25
78584;BME280;67880;46.082;18.234;2023-05-10T00:57:11;99703.94;;;10.11;75.80
78584;BME280;67880;46.082;18.234;2023-05-10T00:57:42;99693.38;;;10.09;75.90
78584;BME280;67880;46.082;18.234;2023-05-10T00:58:13;99700.44;;;10.10;76.05
78584;BME280;67880;46.082;18.234;2023-05-10T00:58:44;99689.56;;;10.12;76.01
78584;BME280;67880;46.082;18.234;2023-05-10T00:59:16;99693.09;;;10.12;75.69
78584;BME280;67880;46.082;18.234;2023-05-10T00:59:48;99694.75;;;10.13;75.65
78584;BME280;67880;46.082;18.234;2023-05-10T01:00:19;99699.81;;;10.16;75.69
78584;BME280;67880;46.082;18.234;2023-05-10T01:00:51;99695.78;;;10.12;75.51
78584;BME280;67880;46.082;18.234;2023-05-10T01:01:23;99698.44;;;10.12;75.97
78584;BME280;67880;46.082;18.234;2023-05-10T01:01:53;99689.56;;;10.12;75.89
78584;BME280;67880;46.082;18.234;2023-05-10T01:02:24;99697.63;;;10.12;75.81
78584;BME280;67880;46.082;18.234;2023-05-10T01:02:55;99691.91;;;10.15;75.97
78584;BME280;67880;46.082;18.234;2023-05-10T01:03:26;99704.50;;;10.14;75.86
78584;BME280;67880;46.082;18.234;2023-05-10T01:03:57;99693.38;;;10.09;75.94
78584;BME280;67880;46.082;18.234;2023-05-10T01:04:28;99699.53;;;10.01;75.93
78584;BME280;67880;46.082;18.234;2023-05-10T01:05:02;99704.06;;;10.01;76.58
78584;BME280;67880;46.082;18.234;2023-05-10T01:05:33;99698.84;;;9.99;76.34
78584;BME280;67880;46.082;18.234;2023-05-10T01:06:04;99699.69;;;10.00;76.35
78584;BME280;67880;46.082;18.234;2023-05-10T01:06:35;99695.84;;;10.02;76.05
78584;BME280;67880;46.082;18.234;2023-05-10T01:07:06;99698.06;;;10.07;76.15
78584;BME280;67880;46.082;18.234;2023-05-10T01:07:37;99697.22;;;10.07;76.23
78584;BME280;67880;46.082;18.234;2023-05-10T01:08:07;99689.47;;;10.03;76.25
78584;BME280;67880;46.082;18.234;2023-05-10T01:08:39;99691.88;;;10.07;76.17
78584;BME280;67880;46.082;18.234;2023-05-10T01:09:11;99697.22;;;10.07;76.15
78584;BME280;67880;46.082;18.234;2023-05-10T01:09:42;99690.03;;;10.07;76.23
78584;BME280;67880;46.082;18.234;2023-05-10T01:10:12;99695.56;;;10.06;76.24
78584;BME280;67880;46.082;18.234;2023-05-10T01:10:43;99688.47;;;10.04;76.07
78584;BME280;67880;46.082;18.234;2023-05-10T01:11:14;99693.00;;;10.04;76.34
78584;BME280;67880;46.082;18.234;2023-05-10T01:11:46;99683.81;;;10.07;76.16
78584;BME280;67880;46.082;18.234;2023-05-10T01:12:16;99684.94;;;10.04;75.96
78584;BME280;67880;46.082;18.234;2023-05-10T01:12:47;99689.03;;;10.08;75.87
78584;BME280;67880;46.082;18.234;2023-05-10T01:13:57;99693.72;;;10.06;76.08
78584;BME280;67880;46.082;18.234;2023-05-10T01:14:28;99690.19;;;10.06;75.68
78584;BME280;67880;46.082;18.234;2023-05-10T01:15:00;99693.53;;;10.08;75.90
78584;BME280;67880;46.082;18.234;2023-05-10T01:15:31;99685.50;;;10.08;75.93
78584;BME280;67880;46.082;18.234;2023-05-10T01:16:03;99686.78;;;10.03;76.02
78584;BME280;67880;46.082;18.234;2023-05-10T01:16:38;99683.28;;;10.03;76.19
78584;BME280;67880;46.082;18.234;2023-05-10T01:17:12;99678.22;;;10.00;76.15
78584;BME280;67880;46.082;18.234;2023-05-10T01:17:45;99675.22;;;10.03;76.08
78584;BME280;67880;46.082;18.234;2023-05-10T01:18:20;99680.44;;;10.04;75.92
78584;BME280;67880;46.082;18.234;2023-05-10T01:18:52;99677.75;;;10.04;75.82
78584;BME280;67880;46.082;18.234;2023-05-10T01:19:25;99671.72;;;10.02;76.11
78584;BME280;67880;46.082;18.234;2023-05-10T01:19:56;99678.06;;;10.01;76.06
78584;BME280;67880;46.082;18.234;2023-05-10T01:20:33;99680.44;;;10.04;75.86
78584;BME280;67880;46.082;18.234;2023-05-10T01:29:18;99675.41;;;9.84;76.45
78584;BME280;67880;46.082;18.234;2023-05-10T01:33:59;99662.84;;;9.84;76.73
78584;BME280;67880;46.082;18.234;2023-05-10T01:34:48;99670.75;;;9.86;76.64
78584;BME280;67880;46.082;18.234;2023-05-10T01:35:40;99667.34;;;9.84;76.43
78584;BME280;67880;46.082;18.234;2023-05-10T01:36:23;99662.16;;;9.82;76.64
78584;BME280;67880;46.082;18.234;2023-05-10T01:37:09;99657.94;;;9.80;76.83
78584;BME280;67880;46.082;18.234;2023-05-10T01:39:36;99655.34;;;9.88;76.36
78584;BME280;67880;46.082;18.234;2023-05-10T01:40:13;99652.94;;;9.85;76.29
78584;BME280;67880;46.082;18.234;2023-05-10T01:42:17;99656.94;;;9.81;76.68
78584;BME280;67880;46.082;18.234;2023-05-10T01:42:54;99647.75;;;9.83;76.44
78584;BME280;67880;46.082;18.234;2023-05-10T01:43:34;99655.34;;;9.88;76.06
78584;BME280;67880;46.082;18.234;2023-05-10T01:44:59;99657.84;;;9.89;76.25
78584;BME280;67880;46.082;18.234;2023-05-10T01:46:14;99655.34;;;9.88;76.20
78584;BME280;67880;46.082;18.234;2023-05-10T01:46:53;99655.50;;;9.86;76.46
78584;BME280;67880;46.082;18.234;2023-05-10T01:47:42;99652.94;;;9.85;76.46
78584;BME280;67880;46.082;18.234;2023-05-10T01:48:14;99655.63;;;9.85;76.37
78584;BME280;67880;46.082;18.234;2023-05-10T01:48:54;99653.28;;;9.82;76.52
78584;BME280;67880;46.082;18.234;2023-05-10T01:49:30;99654.78;;;9.84;76.36
78584;BME280;67880;46.082;18.234;2023-05-10T01:50:04;99654.94;;;9.83;76.75
78584;BME280;67880;46.082;18.234;2023-05-10T01:50:43;99655.13;;;9.81;76.63
78584;BME280;67880;46.082;18.234;2023-05-10T01:51:21;99657.94;;;9.80;76.55
78584;BME280;67880;46.082;18.234;2023-05-10T01:52:00;99656.03;;;9.72;76.63
78584;BME280;67880;46.082;18.234;2023-05-10T01:52:38;99659.78;;;9.79;76.86
78584;BME280;67880;46.082;18.234;2023-05-10T01:53:12;99654.03;;;9.74;76.97
78584;BME280;67880;46.082;18.234;2023-05-10T01:53:46;99655.41;;;9.78;76.89
78584;BME280;67880;46.082;18.234;2023-05-10T01:54:20;99660.09;;;9.76;76.96
78584;BME280;67880;46.082;18.234;2023-05-10T01:54:56;99650.53;;;9.73;76.80
78584;BME280;67880;46.082;18.234;2023-05-10T01:55:32;99654.66;;;9.68;76.95
78584;BME280;67880;46.082;18.234;2023-05-10T01:56:07;99652.97;;;9.67;76.60
78584;BME280;67880;46.082;18.234;2023-05-10T01:56:41;99661.25;;;9.73;76.97
78584;BME280;67880;46.082;18.234;2023-05-10T01:57:16;99662.25;;;9.72;76.89
78584;BME280;67880;46.082;18.234;2023-05-10T01:57:56;99657.34;;;9.68;77.15
78584;BME280;67880;46.082;18.234;2023-05-10T01:58:32;99657.84;;;9.71;76.89
78584;BME280;67880;46.082;18.234;2023-05-10T01:59:11;99666.06;;;9.70;76.92
78584;BME280;67880;46.082;18.234;2023-05-10T01:59:45;99654.94;;;9.65;76.88
78584;BME280;67880;46.082;18.234;2023-05-10T02:00:20;99661.63;;;9.61;77.52
78584;BME280;67880;46.082;18.234;2023-05-10T02:00:52;99651.59;;;9.63;77.35
78584;BME280;67880;46.082;18.234;2023-05-10T02:01:25;99656.78;;;9.64;77.57
78584;BME280;67880;46.082;18.234;2023-05-10T02:01:58;99653.44;;;9.62;77.33
78584;BME280;67880;46.082;18.234;2023-05-10T02:02:33;99662.88;;;9.66;77.19
78584;BME280;67880;46.082;18.234;2023-05-10T02:03:08;99655.13;;;9.63;77.38
78584;BME280;67880;46.082;18.234;2023-05-10T02:03:41;99651.44;;;9.64;77.40
78584;BME280;67880;46.082;18.234;2023-05-10T02:04:16;99654.81;;;9.66;77.01
78584;BME280;67880;46.082;18.234;2023-05-10T02:04:49;99648.59;;;9.66;76.79
78584;BME280;67880;46.082;18.234;2023-05-10T02:05:22;99652.44;;;9.63;76.82
78584;BME280;67880;46.082;18.234;2023-05-10T02:05:54;99649.91;;;9.62;77.22
78584;BME280;67880;46.082;18.234;2023-05-10T02:06:27;99650.19;;;9.59;77.69
78584;BME280;67880;46.082;18.234;2023-05-10T02:06:57;99653.88;;;9.58;77.67
78584;BME280;67880;46.082;18.234;2023-05-10T02:07:28;99656.56;;;9.58;77.10
78584;BME280;67880;46.082;18.234;2023-05-10T02:08:01;99647.00;;;9.55;77.70
78584;BME280;67880;46.082;18.234;2023-05-10T02:08:35;99649.53;;;9.57;77.74
78584;BME280;67880;46.082;18.234;2023-05-10T02:09:09;99651.22;;;9.58;77.80
78584;BME280;67880;46.082;18.234;2023-05-10T02:09:44;99651.53;;;9.55;77.64
78584;BME280;67880;46.082;18.234;2023-05-10T02:10:19;99646.69;;;9.58;77.47
78584;BME280;67880;46.082;18.234;2023-05-10T02:10:53;99641.19;;;9.60;77.55
78584;BME280;67880;46.082;18.234;2023-05-10T02:11:27;99647.53;;;9.59;77.49
78584;BME280;67880;46.082;18.234;2023-05-10T02:11:59;99643.31;;;9.56;77.62
78584;BME280;67880;46.082;18.234;2023-05-10T02:12:36;99644.16;;;9.57;77.52
78584;BME280;67880;46.082;18.234;2023-05-10T02:13:08;99644.72;;;9.60;77.71
78584;BME280;67880;46.082;18.234;2023-05-10T02:13:41;99639.47;;;9.59;77.45
78584;BME280;67880;46.082;18.234;2023-05-10T02:14:14;99644.00;;;9.58;77.48
78584;BME280;67880;46.082;18.234;2023-05-10T02:14:47;99643.31;;;9.56;77.48
78584;BME280;67880;46.082;18.234;2023-05-10T02:15:22;99637.13;;;9.56;77.73
78584;BME280;67880;46.082;18.234;2023-05-10T02:15:55;99635.97;;;9.58;77.71
78584;BME280;67880;46.082;18.234;2023-05-10T02:16:27;99636.97;;;9.57;77.35
78584;BME280;67880;46.082;18.234;2023-05-10T02:16:59;99635.44;;;9.55;77.07
78584;BME280;67880;46.082;18.234;2023-05-10T02:17:31;99639.41;;;9.50;77.50
78584;BME280;67880;46.082;18.234;2023-05-10T02:18:03;99651.97;;;9.50;77.84
78584;BME280;67880;46.082;18.234;2023-05-10T02:18:36;99643.25;;;9.48;77.98
78584;BME280;67880;46.082;18.234;2023-05-10T02:19:07;99636.50;;;9.44;78.07
78584;BME280;67880;46.082;18.234;2023-05-10T02:19:40;99641.25;;;9.50;78.17
78584;BME280;67880;46.082;18.234;2023-05-10T02:20:12;99650.28;;;9.49;78.01
78584;BME280;67880;46.082;18.234;2023-05-10T02:20:47;99649.63;;;9.47;77.99
78584;BME280;67880;46.082;18.234;2023-05-10T02:21:19;99650.59;;;9.46;78.33
78584;BME280;67880;46.082;18.234;2023-05-10T02:21:51;99640.69;;;9.46;78.11
78584;BME280;67880;46.082;18.234;2023-05-10T02:22:24;99643.53;;;9.45;77.92
78584;BME280;67880;46.082;18.234;2023-05-10T02:22:57;99642.88;;;9.43;78.20
78584;BME280;67880;46.082;18.234;2023-05-10T02:23:29;99651.91;;;9.42;78.14
78584;BME280;67880;46.082;18.234;2023-05-10T02:24:03;99640.88;;;9.45;78.22
78584;BME280;67880;46.082;18.234;2023-05-10T02:24:36;99639.72;;;9.47;77.86
78584;BME280;67880;46.082;18.234;2023-05-10T02:25:08;99646.78;;;9.48;78.32
78584;BME280;67880;46.082;18.234;2023-05-10T02:25:43;99645.09;;;9.47;78.16
78584;BME280;67880;46.082;18.234;2023-05-10T02:26:15;99639.03;;;9.45;78.02
78584;BME280;67880;46.082;18.234;2023-05-10T02:26:47;99639.72;;;9.47;77.87
78584;BME280;67880;46.082;18.234;2023-05-10T02:27:20;99647.63;;;9.49;77.94
78584;BME280;67880;46.082;18.234;2023-05-10T02:27:55;99647.91;;;9.46;78.20
78584;BME280;67880;46.082;18.234;2023-05-10T02:28:28;99648.22;;;9.43;78.20
78584;BME280;67880;46.082;18.234;2023-05-10T02:29:01;99646.06;;;9.46;78.07
78584;BME280;67880;46.082;18.234;2023-05-10T02:29:35;99652.28;;;9.47;77.65
78584;BME280;67880;46.082;18.234;2023-05-10T02:30:08;99652.75;;;9.42;78.02
78584;BME280;67880;46.082;18.234;2023-05-10T02:30:40;99648.22;;;9.43;78.38
78584;BME280;67880;46.082;18.234;2023-05-10T02:31:12;99647.16;;;9.36;78.47
78584;BME280;67880;46.082;18.234;2023-05-10T02:31:45;99647.16;;;9.36;78.22
78584;BME280;67880;46.082;18.234;2023-05-10T02:32:17;99646.69;;;9.40;78.45
78584;BME280;67880;46.082;18.234;2023-05-10T02:32:50;99645.84;;;9.40;78.00
78584;BME280;67880;46.082;18.234;2023-05-10T02:33:22;99650.22;;;9.41;78.12
78584;BME280;67880;46.082;18.234;2023-05-10T02:33:54;99653.34;;;9.36;78.35
78584;BME280;67880;46.082;18.234;2023-05-10T02:34:26;99653.34;;;9.36;78.72
78584;BME280;67880;46.082;18.234;2023-05-10T02:35:01;99654.03;;;9.38;78.28
78584;BME280;67880;46.082;18.234;2023-05-10T02:35:33;99647.66;;;9.39;78.51
78584;BME280;67880;46.082;18.234;2023-05-10T02:36:07;99642.31;;;9.39;78.02
78584;BME280;67880;46.082;18.234;2023-05-10T02:36:41;99642.31;;;9.39;78.30
78584;BME280;67880;46.082;18.234;2023-05-10T02:37:14;99636.28;;;9.37;78.31
78584;BME280;67880;46.082;18.234;2023-05-10T02:37:46;99647.53;;;9.41;78.17
78584;BME280;67880;46.082;18.234;2023-05-10T02:38:20;99649.50;;;9.39;78.27
78584;BME280;67880;46.082;18.234;2023-05-10T02:38:53;99648.44;;;9.32;78.44
78584;BME280;67880;46.082;18.234;2023-05-10T02:39:24;99647.44;;;9.33;78.19
78584;BME280;67880;46.082;18.234;2023-05-10T02:39:59;99643.91;;;9.32;78.59
78584;BME280;67880;46.082;18.234;2023-05-10T02:40:33;99641.06;;;9.34;78.06
78584;BME280;67880;46.082;18.234;2023-05-10T02:41:05;99641.94;;;9.34;78.36
78584;BME280;67880;46.082;18.234;2023-05-10T02:41:40;99642.91;;;9.33;78.35
78584;BME280;67880;46.082;18.234;2023-05-10T02:42:16;99650.97;;;9.33;78.57
78584;BME280;67880;46.082;18.234;2023-05-10T02:42:50;99647.16;;;9.36;78.49
78584;BME280;67880;46.082;18.234;2023-05-10T02:43:23;99644.63;;;9.34;78.48
78584;BME280;67880;46.082;18.234;2023-05-10T02:43:59;99643.47;;;9.37;78.45
78584;BME280;67880;46.082;18.234;2023-05-10T02:44:35;99643.75;;;9.34;77.94
78584;BME280;67880;46.082;18.234;2023-05-10T02:45:16;99646.91;;;9.29;78.38
78584;BME280;67880;46.082;18.234;2023-05-10T02:45:48;99646.06;;;9.29;78.55
78584;BME280;67880;46.082;18.234;2023-05-10T02:46:19;99646.91;;;9.29;78.59
78584;BME280;67880;46.082;18.234;2023-05-10T02:46:49;99643.41;;;9.29;78.67
78584;BME280;67880;46.082;18.234;2023-05-10T02:47:20;99643.41;;;9.29;78.54
78584;BME280;67880;46.082;18.234;2023-05-10T02:47:52;99642.84;;;9.25;78.59
78584;BME280;67880;46.082;18.234;2023-05-10T02:48:22;99643.69;;;9.26;78.38
78584;BME280;67880;46.082;18.234;2023-05-10T02:48:53;99648.03;;;9.27;78.91
78584;BME280;67880;46.082;18.234;2023-05-10T02:49:24;99645.34;;;9.27;78.58
78584;BME280;67880;46.082;18.234;2023-05-10T02:49:55;99640.16;;;9.25;78.83
78584;BME280;67880;46.082;18.234;2023-05-10T02:50:27;99646.06;;;9.29;79.01
78584;BME280;67880;46.082;18.234;2023-05-10T02:51:05;99643.41;;;9.29;78.59
78584;BME280;67880;46.082;18.234;2023-05-10T02:51:50;99635.81;;;9.24;78.67
78584;BME280;67880;46.082;18.234;2023-05-10T02:52:25;99639.31;;;9.25;78.71
78584;BME280;67880;46.082;18.234;2023-05-10T02:53:04;99636.47;;;9.26;78.48
78584;BME280;67880;46.082;18.234;2023-05-10T02:53:38;99642.84;;;9.25;78.67
78584;BME280;67880;46.082;18.234;2023-05-10T02:54:13;99635.66;;;9.26;78.68
78584;BME280;67880;46.082;18.234;2023-05-10T02:54:50;99635.97;;;9.22;78.84
78584;BME280;67880;46.082;18.234;2023-05-10T02:55:26;99639.47;;;9.23;78.61
78584;BME280;67880;46.082;18.234;2023-05-10T02:56:01;99634.56;;;9.18;79.05
78584;BME280;67880;46.082;18.234;2023-05-10T02:56:36;99631.88;;;9.18;79.01
78584;BME280;67880;46.082;18.234;2023-05-10T02:57:15;99634.72;;;9.17;79.04
78584;BME280;67880;46.082;18.234;2023-05-10T02:57:55;99633.03;;;9.16;78.84
78584;BME280;67880;46.082;18.234;2023-05-10T02:58:27;99633.16;;;9.14;79.08
78584;BME280;67880;46.082;18.234;2023-05-10T02:58:57;99641.53;;;9.11;79.40
78584;BME280;67880;46.082;18.234;2023-05-10T02:59:28;99635.84;;;9.14;79.18
78584;BME280;67880;46.082;18.234;2023-05-10T02:59:59;99638.53;;;9.14;79.27
78584;BME280;67880;46.082;18.234;2023-05-10T03:00:30;99643.03;;;9.14;79.12
78584;BME280;67880;46.082;18.234;2023-05-10T03:01:01;99633.31;;;9.13;79.15
78584;BME280;67880;46.082;18.234;2023-05-10T03:01:32;99639.00;;;9.10;79.26
78584;BME280;67880;46.082;18.234;2023-05-10T03:02:03;99636.16;;;9.11;79.25
78584;BME280;67880;46.082;18.234;2023-05-10T03:02:34;99636.16;;;9.11;79.15
78584;BME280;67880;46.082;18.234;2023-05-10T03:03:06;99639.84;;;9.10;79.42
78584;BME280;67880;46.082;18.234;2023-05-10T03:03:37;99644.19;;;9.11;79.55
78584;BME280;67880;46.082;18.234;2023-05-10T03:04:07;99643.03;;;9.14;79.15
78584;BME280;67880;46.082;18.234;2023-05-10T03:04:38;99633.31;;;9.13;79.33
78584;BME280;67880;46.082;18.234;2023-05-10T03:05:09;99634.31;;;9.12;79.31
78584;BME280;67880;46.082;18.234;2023-05-10T03:05:39;99645.88;;;9.12;79.30
78584;BME280;67880;46.082;18.234;2023-05-10T03:06:10;99639.69;;;9.12;79.13
78584;BME280;67880;46.082;18.234;2023-05-10T03:06:41;99635.16;;;9.12;79.44
78584;BME280;67880;46.082;18.234;2023-05-10T03:07:12;99640.25;;;9.15;78.98
78584;BME280;67880;46.082;18.234;2023-05-10T03:07:44;99637.56;;;9.15;79.13
78584;BME280;67880;46.082;18.234;2023-05-10T03:08:16;99640.75;;;9.19;79.31
78584;BME280;67880;46.082;18.234;2023-05-10T03:08:46;99639.25;;;9.16;79.06
78584;BME280;67880;46.082;18.234;2023-05-10T03:09:17;99644.75;;;9.15;79.67
78584;BME280;67880;46.082;18.234;2023-05-10T03:09:49;99640.53;;;9.12;79.32
78584;BME280;67880;46.082;18.234;2023-05-10T03:10:26;99634.03;;;9.15;79.18